Nickelena — WDER746 — position and weather

sailwx.info

Track history (hours):
 
Tides and Currents Weather Stations Pressure Air Temp Water Temp Dewpoint Dewpoint Depression Visibility Wind Speed Wind Dir Waves Ship Positions

Nickelena

Last reported at 2014-Aug-08 11:23 UTC. Time now 2014-Oct-23 08:05 UTC.
Position N 45°45' W 087°02'.
Warning: this ship's position is months out of date.

Length 33 m.

Type: Tug. MMSI: 367393840.

Date/timePositionNaut miles runAvg speedWind from/ knotsBaromVisibWave heightAir tempDewpointWater temp
2014-Aug-08 11:23N 45°45' W 087°02'0 0.0
2014-Aug-08 10:22N 45°45' W 087°02'  
2014-Aug-02 16:33N 44°56' W 086°09'8 7.7
2014-Aug-02 15:33N 44°60' W 085°60'8 7.6
2014-Aug-02 14:33N 45°05' W 085°52'8 7.9
2014-Aug-02 13:33N 45°12' W 085°46'24 7.8
2014-Aug-02 10:33N 45°31' W 085°27'8 7.8
2014-Aug-02 09:33N 45°37' W 085°20'8 7.8
2014-Aug-02 08:33N 45°43' W 085°13'7 7.1
2014-Aug-02 07:33N 45°49' W 085°08'8 7.6
2014-Aug-02 06:33N 45°50' W 084°57'8 7.7
2014-Aug-02 05:33N 45°49' W 084°46'8 7.6
2014-Aug-02 04:33N 45°46' W 084°36'8 7.9
2014-Aug-02 03:33N 45°42' W 084°27'8 7.8
2014-Aug-02 02:32N 45°40' W 084°15'  
Track history (hours):
 
Tides and Currents Weather Stations Pressure Air Temp Water Temp Dewpoint Dewpoint Depression Visibility Wind Speed Wind Dir Waves Ship Positions

Nickelena

Last reported at 2014-Aug-08 11:23 UTC. Time now 2014-Oct-23 08:05 UTC.
Position N 45°45' W 087°02'.
Warning: this ship's position is months out of date.

Length 33 m.

Type: Tug. MMSI: 367393840.

Date/timePositionNaut miles runAvg speedWind from/ knotsBaromVisibWave heightAir tempDewpointWater temp
2014-Aug-08 11:23N 45°45' W 087°02'0 0.0
2014-Aug-08 10:22N 45°45' W 087°02'  
2014-Aug-02 16:33N 44°56' W 086°09'8 7.7
2014-Aug-02 15:33N 44°60' W 085°60'8 7.6
2014-Aug-02 14:33N 45°05' W 085°52'8 7.9
2014-Aug-02 13:33N 45°12' W 085°46'24 7.8
2014-Aug-02 10:33N 45°31' W 085°27'8 7.8
2014-Aug-02 09:33N 45°37' W 085°20'8 7.8
2014-Aug-02 08:33N 45°43' W 085°13'7 7.1
2014-Aug-02 07:33N 45°49' W 085°08'8 7.6
2014-Aug-02 06:33N 45°50' W 084°57'8 7.7
2014-Aug-02 05:33N 45°49' W 084°46'8 7.6
2014-Aug-02 04:33N 45°46' W 084°36'8 7.9
2014-Aug-02 03:33N 45°42' W 084°27'8 7.8
2014-Aug-02 02:32N 45°40' W 084°15'  

Dump ship's entire track history